Ana Sayfa
METAR-TAF:

METAR-TAF

Havaalanları :

Person County Airport

Roxboro, Kuzey Carolina, Amerika Birleşik Devletleri

Enlem: 36-17-06N, Boylam: 078-59-03W, yükseklik: 186 m

Güncel hava durumu gözlemi

Rapor saat 07:35 UTC de 21 dakika önce yapıldı.
Rüzgar güneydan 5 kt
Sıcaklık 20°C
Nem 100%
Basınç 1017 hPa
Görüş mesafesi: 16.1 km
600 ft yükseklikte parçalı bulutlu
1900 ft yükseklikte parçalı çok bulutlu
3300 ft yükseklikte çok bulutlu
hafif yağmur

METAR: KTDF 280735Z AUTO 17005KT 10SM -RA SCT006 BKN019 OVC033 20/20 A3004 RMK AO2

Saat: 03:56 (07:56 UTC)


TAF: eksik

4.000'den fazla havaalanı için hava durumu gözlemleri ve tahminleri (METAR ve TAF raporları).

Kullanılabilir istasyonlar harita üzerinde sarı ve kırmızı noktalarla gösterilir.

İstasyonun adını görmek için fareyi noktanın üzerinde gezdirin.

Sonrasında hava gözlem ve tahminlerini görmek için tıklayın.

Haritayı değiştirmek için: yaklaştırmak için siyah artı işaretli yeşil düğmeye ve uzaklaştırmak için de eksi işaretli düğmeye hızla tıklayın; bitişik haritalar için yeşil okları kullanın.


METAR-TAF: